Time;durP1;ratioP1;P1;durP2;ratioP2;P2;SDS_P1;SDS_P2;PMS_P1;PMS_P2;Temp;Humidity;BMP_temperature;BMP_pressure;BME280_temperature;BME280_humidity;BME280_pressure;Samples;Min_cycle;Max_cycle;Signal;HPM_P1;HPM_P2
2023/03/26 00:01:32;;;;;;;0.50;0.50;;;18.10;62.00;;;18.40;45.45;94218.09;4938109;29;20199;-26
2023/03/26 00:04:00;;;;;;;0.50;0.50;;;18.20;62.10;;;18.41;45.17;94217.03;4937960;29;20213;-26
2023/03/26 00:06:35;;;;;;;0.40;0.40;;;18.20;62.10;;;18.41;45.43;94214.38;4938816;29;20529;-26
2023/03/26 00:09:06;;;;;;;0.50;0.50;;;18.10;62.00;;;18.38;45.63;94217.53;4921967;29;20203;-26
2023/03/26 00:11:34;;;;;;;0.50;0.50;;;18.10;62.00;;;18.39;45.71;94224.47;4921202;29;20302;-26
2023/03/26 00:14:01;;;;;;;0.43;0.43;;;18.10;62.00;;;18.38;45.30;94220.19;4937872;29;20187;-26
2023/03/26 00:16:30;;;;;;;0.50;0.50;;;18.10;62.00;;;18.39;45.46;94219.16;4921472;29;20203;-25
2023/03/26 00:19:00;;;;;;;0.40;0.40;;;18.10;62.00;;;18.37;45.54;94214.09;4937675;29;20238;-25
2023/03/26 00:21:29;;;;;;;0.45;0.45;;;18.20;62.10;;;18.36;45.58;94209.84;4937804;29;20197;-25
2023/03/26 00:24:03;;;;;;;0.40;0.40;;;18.10;62.00;;;18.37;45.22;94206.13;4937664;29;20210;-25
2023/03/26 00:26:32;;;;;;;0.50;0.50;;;18.20;62.10;;;18.35;45.23;94208.25;4938020;29;20290;-25
2023/03/26 00:29:02;;;;;;;0.50;0.50;;;18.10;62.00;;;18.38;45.51;94214.88;4921670;29;20239;-25
2023/03/26 00:31:30;;;;;;;0.60;0.60;;;18.20;62.10;;;18.36;45.69;94217.03;4921825;29;20262;-25
2023/03/26 00:33:58;;;;;;;0.52;0.52;;;18.10;62.00;;;18.34;45.25;94227.88;4937792;29;20311;-25
2023/03/26 00:36:25;;;;;;;0.50;0.50;;;18.10;62.00;;;18.36;45.45;94217.03;4920848;29;20230;-25
2023/03/26 00:38:53;;;;;;;0.50;0.50;;;18.10;62.00;;;18.34;45.18;94209.28;4920849;29;20203;-25
2023/03/26 00:41:24;;;;;;;0.50;0.50;;;18.10;62.00;;;18.34;45.39;94222.56;4937630;29;20210;-25
2023/03/26 00:43:56;;;;;;;0.52;0.52;;;18.10;62.00;;;18.35;45.82;94223.38;4937863;29;20610;-25
2023/03/26 00:46:26;;;;;;;0.60;0.60;;;18.10;62.00;;;18.33;45.28;94225.50;4907835;29;20270;-25
2023/03/26 00:48:57;;;;;;;0.50;0.50;;;18.10;61.90;;;18.33;45.60;94234.25;4925379;29;20564;-25
2023/03/26 00:51:25;;;;;;;0.50;0.50;;;18.10;62.00;;;18.33;45.38;94226.28;4924799;29;20195;-25
2023/03/26 00:53:53;;;;;;;0.30;0.30;;;18.10;61.90;;;18.33;45.43;94222.84;4941872;29;20192;-25
2023/03/26 00:56:20;;;;;;;0.50;0.50;;;18.10;62.00;;;18.32;45.37;94218.56;4924792;29;20290;-25
2023/03/26 00:58:48;;;;;;;0.50;0.50;;;18.10;62.00;;;18.32;45.89;94219.41;4941362;29;20200;-25
2023/03/26 01:01:26;;;;;;;0.50;0.50;;;18.10;62.00;;;18.31;45.94;94211.66;4909057;29;20262;-25
2023/03/26 01:04:00;;;;;;;0.50;0.50;;;18.10;62.00;;;18.32;45.88;94208.78;4924832;29;20202;-25
2023/03/26 01:06:40;;;;;;;0.45;0.45;;;18.10;62.00;;;18.31;45.40;94216.97;4941846;29;20266;-25
2023/03/26 01:09:20;;;;;;;0.45;0.45;;;18.10;62.00;;;18.30;45.67;94208.22;4924929;29;20655;-25
2023/03/26 01:11:48;;;;;;;0.50;0.50;;;18.10;62.00;;;18.29;45.81;94203.19;4942120;29;20604;-25
2023/03/26 01:14:22;;;;;;;0.50;0.50;;;18.10;62.00;;;18.29;45.96;94195.22;4924541;29;20223;-25
2023/03/26 01:16:59;;;;;;;0.50;0.50;;;18.10;62.00;;;18.30;45.49;94199.47;4940892;29;20171;-25
2023/03/26 01:20:07;;;;;;;0.57;0.57;;;18.10;62.00;;;18.27;45.52;94197.31;4924284;29;20211;-25
2023/03/26 01:22:36;;;;;;;0.52;0.52;;;18.10;62.00;;;18.27;45.86;94186.69;4941244;29;20195;-25
2023/03/26 01:25:04;;;;;;;0.40;0.40;;;18.10;62.00;;;18.26;45.68;94185.09;4940969;29;20219;-25
2023/03/26 01:27:48;;;;;;;0.45;0.45;;;18.10;62.00;;;18.24;46.04;94188.81;4941376;29;20258;-25
2023/03/26 01:30:51;;;;;;;0.50;0.50;;;18.00;61.90;;;18.25;45.81;94192.28;4940254;29;20191;-25
2023/03/26 01:34:03;;;;;;;0.50;0.50;;;18.00;61.90;;;18.23;46.09;94186.41;4939143;29;20214;-25
2023/03/26 01:36:47;;;;;;;0.40;0.40;;;18.00;61.90;;;18.23;46.11;94194.38;4937451;29;20211;-25
2023/03/26 01:39:30;;;;;;;0.50;0.50;;;18.00;61.90;;;18.22;45.63;94198.09;4923930;29;20195;-25
2023/03/26 01:42:07;;;;;;;0.50;0.50;;;18.00;61.90;;;18.22;45.78;94187.47;4924355;29;20176;-25
2023/03/26 01:44:54;;;;;;;0.50;0.50;;;18.00;61.90;;;18.21;46.15;94185.88;4924029;29;20187;-25
2023/03/26 01:47:21;;;;;;;0.57;0.57;;;18.00;61.90;;;18.21;46.13;94194.66;4940813;29;20194;-25
2023/03/26 01:49:49;;;;;;;0.50;0.50;;;18.00;61.90;;;18.21;45.64;94184.03;4940693;29;20239;-25
2023/03/26 01:52:24;;;;;;;0.50;0.50;;;18.00;61.90;;;18.22;46.02;94188.28;4923804;29;20223;-25
2023/03/26 01:54:53;;;;;;;0.50;0.50;;;18.00;61.90;;;18.22;45.75;94188.28;4907860;29;20226;-25
2023/03/26 01:57:59;;;;;;;0.50;0.50;;;18.00;61.90;;;18.21;45.72;94194.66;4939511;29;20209;-25
2023/03/26 02:00:50;;;;;;;0.50;0.50;;;18.00;61.90;;;18.20;45.67;94194.88;4923692;29;20639;-25
2023/03/26 02:03:33;;;;;;;0.50;0.50;;;18.00;61.90;;;18.19;46.15;94188.78;4923988;29;20180;-25
2023/03/26 02:06:14;;;;;;;0.52;0.52;;;18.00;61.90;;;18.20;46.00;94190.38;4923612;29;20184;-25
2023/03/26 02:08:56;;;;;;;0.40;0.40;;;18.00;62.10;;;18.18;45.60;94189.06;4923322;29;20219;-25
2023/03/26 02:11:23;;;;;;;0.50;0.50;;;18.00;62.00;;;18.20;45.78;94187.72;4907705;29;20199;-25
2023/03/26 02:14:06;;;;;;;0.50;0.50;;;18.00;62.10;;;18.18;45.95;94195.16;4923284;29;20199;-25
2023/03/26 02:16:33;;;;;;;0.50;0.50;;;18.00;62.00;;;18.20;45.86;94190.38;4923132;29;20534;-25
2023/03/26 02:19:01;;;;;;;0.40;0.40;;;18.00;62.10;;;18.20;45.98;94197.53;4923067;29;20306;-25
2023/03/26 02:21:28;;;;;;;0.50;0.50;;;18.00;62.10;;;18.21;45.72;94188.53;4923096;29;20211;-25
2023/03/26 02:24:01;;;;;;;0.47;0.47;;;18.00;62.20;;;18.20;45.73;94193.03;4923078;29;20254;-25
2023/03/26 02:26:33;;;;;;;0.50;0.50;;;18.00;63.00;;;18.20;45.69;94189.56;4922967;29;20191;-25
2023/03/26 02:29:19;;;;;;;0.50;0.50;;;18.00;62.10;;;18.19;46.06;94183.47;4909699;29;20221;-25
2023/03/26 02:31:48;;;;;;;0.50;0.50;;;18.00;63.00;;;18.19;46.26;94186.13;4922931;29;20234;-25
2023/03/26 02:34:16;;;;;;;0.50;0.50;;;18.00;62.00;;;18.20;45.78;94179.78;4907984;29;20560;-25
2023/03/26 02:36:51;;;;;;;0.50;0.50;;;18.00;62.20;;;18.20;45.81;94187.72;4922721;29;20195;-25
2023/03/26 02:39:19;;;;;;;0.43;0.43;;;18.00;62.10;;;18.20;46.25;94181.59;4922798;29;20294;-25
2023/03/26 02:41:54;;;;;;;0.50;0.50;;;18.00;62.20;;;18.19;46.21;94175.50;4922847;29;20198;-25
2023/03/26 02:44:21;;;;;;;0.50;0.50;;;18.00;62.10;;;18.22;45.77;94182.97;4939411;29;20638;-25
2023/03/26 02:46:57;;;;;;;0.50;0.50;;;18.00;62.20;;;18.19;46.01;94180.81;4939617;29;20568;-25
2023/03/26 02:49:43;;;;;;;0.60;0.60;;;18.00;62.20;;;18.18;46.30;94170.47;4939635;29;20262;-25
2023/03/26 02:52:17;;;;;;;0.50;0.50;;;18.00;62.20;;;18.17;46.06;94161.69;4922751;29;20208;-25
2023/03/26 02:54:47;;;;;;;0.60;0.60;;;18.00;62.20;;;18.17;46.21;94171.53;4923240;29;20203;-25
2023/03/26 02:57:23;;;;;;;0.60;0.60;;;18.00;62.20;;;18.20;45.82;94174.47;4922579;29;20199;-25
2023/03/26 02:59:53;;;;;;;0.55;0.55;;;18.00;62.20;;;18.19;46.06;94172.06;4939522;29;20188;-25
2023/03/26 03:02:42;;;;;;;0.43;0.43;;;18.00;62.30;;;18.17;46.45;94169.66;4932973;29;20216;-25
2023/03/26 03:05:30;;;;;;;0.50;0.50;;;17.90;62.20;;;18.15;46.27;94165.66;4939918;29;20207;-25
2023/03/26 03:08:25;;;;;;;0.50;0.50;;;17.90;62.20;;;18.15;46.39;94174.44;4924736;29;20235;-25
2023/03/26 03:11:23;;;;;;;0.50;0.50;;;17.90;62.30;;;18.16;45.98;94159.31;4922839;29;20203;-25
2023/03/26 03:13:52;;;;;;;0.60;0.60;;;17.90;62.20;;;18.15;46.09;94163.00;4922241;29;20266;-25
2023/03/26 03:16:22;;;;;;;0.52;0.52;;;17.90;62.30;;;18.15;46.22;94170.97;4891689;29;20206;-25
2023/03/26 03:18:53;;;;;;;0.57;0.57;;;17.90;62.20;;;18.14;46.37;94156.91;4921911;29;20302;-25
2023/03/26 03:21:24;;;;;;;0.45;0.45;;;17.90;62.30;;;18.16;46.36;94167.28;4922094;29;20607;-25
2023/03/26 03:23:52;;;;;;;0.50;0.50;;;17.90;62.30;;;18.15;46.32;94161.16;4939028;29;20196;-25
2023/03/26 03:26:26;;;;;;;0.52;0.52;;;17.90;62.30;;;18.15;46.38;94155.06;4921809;29;20195;-25
2023/03/26 03:28:57;;;;;;;0.50;0.50;;;17.90;62.40;;;18.16;46.15;94154.81;4906960;29;20256;-25
2023/03/26 03:31:26;;;;;;;0.50;0.50;;;17.90;62.30;;;18.15;46.15;94160.34;4922421;29;20219;-25
2023/03/26 03:33:58;;;;;;;0.50;0.50;;;17.90;62.30;;;18.15;45.86;94153.22;4921836;29;20190;-25
2023/03/26 03:36:29;;;;;;;0.50;0.50;;;17.90;62.30;;;18.14;45.90;94156.09;4921856;29;20214;-25
2023/03/26 03:39:04;;;;;;;0.43;0.43;;;17.90;62.30;;;18.14;46.30;94159.56;4922592;29;20258;-25
2023/03/26 03:41:31;;;;;;;0.50;0.50;;;17.90;62.30;;;18.14;46.11;94156.09;4921740;29;20263;-25
2023/03/26 03:44:02;;;;;;;0.52;0.52;;;17.90;62.30;;;18.15;45.98;94145.25;4921667;29;20227;-25
2023/03/26 03:46:31;;;;;;;0.50;0.50;;;17.90;62.30;;;18.14;45.98;94150.78;4938447;29;20524;-25
2023/03/26 03:48:59;;;;;;;0.50;0.50;;;17.90;62.30;;;18.15;46.31;94144.44;4921461;29;20236;-25
2023/03/26 03:51:31;;;;;;;0.60;0.60;;;17.90;62.30;;;18.14;46.49;94143.66;4921750;29;20203;-25
2023/03/26 03:54:02;;;;;;;0.50;0.50;;;17.90;62.30;;;18.14;46.00;94142.84;4921462;29;20657;-25
2023/03/26 03:56:51;;;;;;;0.40;0.40;;;17.90;62.30;;;18.15;46.54;94152.41;4924658;29;20575;-25
2023/03/26 03:59:38;;;;;;;0.40;0.40;;;17.90;62.30;;;18.13;46.24;94151.88;4924472;29;20242;-25
2023/03/26 04:02:19;;;;;;;0.52;0.52;;;17.90;62.30;;;18.14;46.02;94142.84;4921381;29;20192;-25
2023/03/26 04:04:56;;;;;;;0.50;0.50;;;17.90;62.30;;;18.12;46.28;94129.81;4921368;29;20201;-25
2023/03/26 04:07:24;;;;;;;0.50;0.50;;;17.90;62.30;;;18.11;45.85;94136.19;4921131;29;20203;-25
2023/03/26 04:10:06;;;;;;;0.50;0.50;;;17.90;62.40;;;18.10;46.11;94131.94;4938240;29;20208;-25
2023/03/26 04:12:55;;;;;;;0.40;0.40;;;17.90;62.40;;;18.10;45.95;94129.28;4937885;29;20223;-25
2023/03/26 04:15:39;;;;;;;0.47;0.47;;;17.90;62.30;;;18.10;46.45;94134.59;4921277;29;20217;-25
2023/03/26 04:18:11;;;;;;;0.77;0.77;;;17.90;62.40;;;18.12;46.37;94137.00;4921041;29;20249;-25
2023/03/26 04:20:45;;;;;;;0.50;0.50;;;17.90;62.40;;;18.09;46.64;94127.72;4920632;29;20206;-25
2023/03/26 04:23:18;;;;;;;0.50;0.50;;;17.90;62.40;;;18.09;46.23;94125.06;4921398;29;20543;-25
2023/03/26 04:25:54;;;;;;;0.50;0.50;;;17.90;62.40;;;18.10;46.46;94125.84;4920998;29;20217;-25
2023/03/26 04:28:41;;;;;;;0.50;0.50;;;17.90;62.40;;;18.08;46.04;94120.78;4893420;29;20213;-25
2023/03/26 04:31:27;;;;;;;0.43;0.43;;;17.90;62.40;;;18.08;45.94;94120.78;4921059;29;20207;-25
2023/03/26 04:34:22;;;;;;;0.50;0.50;;;17.90;62.40;;;18.06;45.95;94105.09;4905907;29;20195;-25
2023/03/26 04:37:21;;;;;;;0.50;0.50;;;17.90;62.40;;;18.07;46.28;94113.88;4936485;29;20548;-25
2023/03/26 04:40:06;;;;;;;0.50;0.50;;;17.90;62.40;;;18.03;46.22;94105.66;4920931;29;20270;-25
2023/03/26 04:42:47;;;;;;;0.50;0.50;;;17.90;62.40;;;18.04;46.10;94109.09;4892745;29;20294;-25
2023/03/26 04:45:22;;;;;;;0.50;0.50;;;17.80;62.30;;;18.05;46.13;94126.59;4921100;29;20214;-25
2023/03/26 04:47:59;;;;;;;0.40;0.40;;;17.80;62.40;;;18.04;46.33;94117.84;4920798;29;20217;-25
2023/03/26 04:50:26;;;;;;;0.55;0.55;;;17.80;62.50;;;18.05;46.49;94116.00;4920720;29;20560;-25
2023/03/26 04:52:58;;;;;;;0.50;0.50;;;17.80;62.40;;;18.04;46.13;94112.56;4920733;29;20757;-25
2023/03/26 04:55:58;;;;;;;0.50;0.50;;;17.80;62.50;;;18.05;46.54;94116.00;4937412;29;20632;-25
2023/03/26 04:58:46;;;;;;;0.50;0.50;;;17.80;62.60;;;18.01;46.31;94113.06;4937425;29;20214;-25
2023/03/26 05:01:15;;;;;;;0.50;0.50;;;17.80;62.50;;;18.01;46.48;94099.00;4921006;29;20302;-26
2023/03/26 05:03:44;;;;;;;0.50;0.50;;;17.80;62.50;;;18.03;46.31;94112.81;4920699;29;20188;-25
2023/03/26 05:06:14;;;;;;;0.60;0.60;;;17.80;62.50;;;18.01;46.55;94110.41;4920499;29;20290;-26
2023/03/26 05:08:41;;;;;;;0.50;0.50;;;17.80;62.50;;;18.03;46.25;94112.81;4921128;29;20235;-25
2023/03/26 05:11:15;;;;;;;0.50;0.50;;;17.80;62.60;;;18.02;46.45;94112.00;4920837;29;20199;-25
2023/03/26 05:13:42;;;;;;;0.40;0.40;;;17.80;62.50;;;18.04;45.99;94111.75;4920589;29;20584;-25
2023/03/26 05:16:12;;;;;;;0.50;0.50;;;17.80;62.50;;;18.03;46.55;94105.66;4920641;29;20203;-25
2023/03/26 05:18:45;;;;;;;0.50;0.50;;;17.80;62.50;;;18.04;46.66;94109.09;4920561;29;20249;-25
2023/03/26 05:21:13;;;;;;;0.50;0.50;;;17.80;62.60;;;18.04;46.64;94106.44;4921377;29;20200;-25
2023/03/26 05:23:40;;;;;;;0.50;0.50;;;17.80;62.60;;;18.04;46.06;94104.59;4920489;29;20195;-25
2023/03/26 05:26:16;;;;;;;0.40;0.40;;;17.80;62.60;;;18.05;46.14;94103.53;4920624;29;20212;-25
2023/03/26 05:28:44;;;;;;;0.50;0.50;;;17.80;62.60;;;18.06;46.57;94093.72;4920803;29;20238;-25
2023/03/26 05:31:21;;;;;;;0.50;0.50;;;17.80;62.60;;;18.05;46.61;94092.13;4938025;29;20168;-25
2023/03/26 05:33:52;;;;;;;0.50;0.50;;;17.80;62.60;;;18.04;46.09;94091.31;4924317;29;20541;-25
2023/03/26 05:36:19;;;;;;;0.50;0.50;;;17.80;62.70;;;18.05;46.73;94092.94;4941018;29;20203;-25
2023/03/26 05:38:51;;;;;;;0.50;0.50;;;17.80;62.60;;;18.06;46.72;94091.84;4940617;29;20195;-25
2023/03/26 05:41:46;;;;;;;0.50;0.50;;;17.80;62.60;;;18.05;46.51;94084.97;4940387;29;20203;-25
2023/03/26 05:44:14;;;;;;;0.50;0.50;;;17.80;62.60;;;18.06;46.63;94088.41;4940608;29;20208;-25
2023/03/26 05:46:41;;;;;;;0.45;0.45;;;17.80;62.60;;;18.08;46.51;94087.09;4908487;29;20266;-25
2023/03/26 05:49:14;;;;;;;0.52;0.52;;;17.90;62.70;;;18.07;46.48;94082.84;4923904;29;20685;-25
2023/03/26 05:51:41;;;;;;;0.60;0.60;;;17.80;62.60;;;18.08;46.48;94088.97;4923701;29;20639;-25
2023/03/26 05:54:46;;;;;;;0.50;0.50;;;17.90;62.70;;;18.06;46.21;94093.72;4901123;29;20193;-25
2023/03/26 05:57:36;;;;;;;0.50;0.50;;;17.80;62.70;;;18.07;46.56;94100.63;4900696;29;20625;-25
2023/03/26 06:00:23;;;;;;;0.50;0.50;;;17.80;62.70;;;18.08;46.77;94099.56;4930539;29;20221;-25
2023/03/26 06:02:55;;;;;;;0.50;0.50;;;17.80;62.60;;;18.08;46.88;94096.91;4923449;29;20195;-25
2023/03/26 06:05:43;;;;;;;0.43;0.43;;;17.90;62.70;;;18.08;46.83;94095.03;4936676;29;20207;-25
2023/03/26 06:08:31;;;;;;;0.50;0.50;;;17.80;62.80;;;18.09;46.53;94093.22;4939616;29;20270;-25
2023/03/26 06:11:00;;;;;;;0.40;0.40;;;17.80;63.00;;;18.11;46.29;94090.28;4907474;29;20231;-25
2023/03/26 06:13:32;;;;;;;0.50;0.50;;;17.90;62.80;;;18.10;46.15;94083.38;4908681;29;20203;-25
2023/03/26 06:15:59;;;;;;;0.60;0.60;;;17.80;63.60;;;18.12;46.64;94092.69;4923069;29;20219;-25
2023/03/26 06:18:35;;;;;;;0.50;0.50;;;17.90;62.80;;;18.13;46.74;94086.31;4939870;29;20250;-25
2023/03/26 06:21:21;;;;;;;0.50;0.50;;;17.90;62.80;;;18.12;46.61;94081.28;4940469;29;20278;-25
2023/03/26 06:23:52;;;;;;;0.50;0.50;;;17.90;62.80;;;18.14;46.26;94081.78;4939214;29;20290;-25
2023/03/26 06:26:51;;;;;;;0.50;0.50;;;17.90;62.90;;;18.13;46.32;94075.69;4927504;29;20211;-25
2023/03/26 06:29:49;;;;;;;0.43;0.43;;;17.90;62.80;;;18.14;46.81;94084.44;4923427;29;20687;-26
2023/03/26 06:32:31;;;;;;;0.50;0.50;;;17.90;62.80;;;18.15;46.83;94083.38;4925625;29;20236;-26
2023/03/26 06:35:07;;;;;;;0.50;0.50;;;17.90;62.80;;;18.14;46.76;94082.59;4922921;29;20203;-26
2023/03/26 06:37:35;;;;;;;0.50;0.50;;;17.90;62.90;;;18.17;46.85;94082.06;4922761;29;20211;-26
2023/03/26 06:40:03;;;;;;;0.50;0.50;;;17.90;62.90;;;18.18;46.77;94086.31;4939881;29;20199;-26
2023/03/26 06:43:01;;;;;;;0.50;0.50;;;17.90;62.90;;;18.17;46.41;94084.72;4922530;29;20211;-26
2023/03/26 06:45:52;;;;;;;0.50;0.50;;;17.90;62.90;;;18.19;46.55;94092.44;4922760;29;20203;-26
2023/03/26 06:48:40;;;;;;;0.50;0.50;;;17.90;62.90;;;18.20;46.34;94088.72;4939872;29;20241;-26
2023/03/26 06:51:46;;;;;;;0.50;0.50;;;17.90;62.90;;;18.18;46.48;94077.56;4918945;29;20200;-26
2023/03/26 06:54:37;;;;;;;0.50;0.50;;;17.90;62.90;;;18.19;46.92;94085.28;4911650;29;20226;-26
2023/03/26 06:57:29;;;;;;;0.47;0.47;;;17.90;63.00;;;18.22;46.87;94086.59;4935127;29;20215;-26
2023/03/26 07:00:20;;;;;;;0.50;0.50;;;18.00;63.00;;;18.21;46.87;94069.91;4922551;29;20219;-26
2023/03/26 07:03:06;;;;;;;0.60;0.60;;;18.00;63.00;;;18.21;46.74;94072.56;4939833;29;20214;-25
2023/03/26 07:05:52;;;;;;;0.55;0.55;;;18.00;63.00;;;18.24;46.51;94071.22;4912554;29;20268;-23
2023/03/26 07:08:38;;;;;;;0.40;0.40;;;18.00;63.10;;;18.23;46.77;94080.25;4939078;29;20201;-23
2023/03/26 07:11:44;;;;;;;0.45;0.45;;;18.00;63.10;;;18.25;46.82;94086.09;4899666;29;20185;-23
2023/03/26 07:14:31;;;;;;;0.50;0.50;;;18.00;63.10;;;18.28;46.81;94087.44;4900232;29;20248;-26
2023/03/26 07:17:08;;;;;;;0.50;0.50;;;18.00;63.10;;;18.27;47.00;94081.31;4925986;29;20330;-23
2023/03/26 07:19:52;;;;;;;0.50;0.50;;;18.00;63.10;;;18.28;46.66;94076.81;4939107;29;20628;-26
2023/03/26 07:22:24;;;;;;;0.60;0.60;;;18.00;63.10;;;18.31;46.86;94074.44;4921910;29;20270;-23
2023/03/26 07:25:05;;;;;;;0.50;0.50;;;18.00;63.10;;;18.32;46.45;94075.22;4938972;29;20272;-23
2023/03/26 07:28:07;;;;;;;0.50;0.50;;;18.10;63.20;;;18.33;46.83;94066.22;4930878;29;20298;-25
2023/03/26 07:31:06;;;;;;;0.50;0.50;;;18.10;63.20;;;18.35;46.67;94072.84;4911645;29;20218;-26
2023/03/26 07:34:00;;;;;;;0.50;0.50;;;18.10;63.20;;;18.37;47.24;94067.28;4922435;29;20650;-25
2023/03/26 07:36:55;;;;;;;0.55;0.55;;;18.10;63.20;;;18.38;46.63;94071.53;4892885;29;20553;-23
2023/03/26 07:39:58;;;;;;;0.50;0.50;;;18.10;63.20;;;18.39;47.08;94073.94;4907597;29;20210;-26
2023/03/26 07:43:15;;;;;;;0.50;0.50;;;18.10;63.20;;;18.39;47.19;94071.28;4906780;29;20196;-23
2023/03/26 07:46:12;;;;;;;0.50;0.50;;;18.10;63.20;;;18.41;47.09;94071.00;4921697;29;20553;-26
2023/03/26 07:48:58;;;;;;;0.50;0.50;;;18.20;63.30;;;18.43;46.71;94068.09;4938899;29;20187;-26
2023/03/26 07:51:38;;;;;;;0.50;0.50;;;18.20;63.30;;;18.47;47.04;94075.28;4921905;29;20204;-23
2023/03/26 07:54:09;;;;;;;0.40;0.40;;;18.20;63.30;;;18.47;46.62;94066.50;4938644;29;20208;-25
2023/03/26 07:57:04;;;;;;;0.40;0.40;;;18.20;63.30;;;18.49;47.03;94061.72;4921175;29;20230;-23
2023/03/26 07:59:51;;;;;;;0.40;0.40;;;18.20;63.20;;;18.50;46.94;94053.50;4939201;29;20202;-23
2023/03/26 08:03:29;;;;;;;0.50;0.50;;;18.20;63.20;;;18.52;46.98;94054.03;4912628;29;20639;-25
2023/03/26 08:06:28;;;;;;;0.50;0.50;;;18.30;63.20;;;18.53;46.80;94068.13;4937662;29;20254;-30
2023/03/26 08:09:29;;;;;;;0.70;0.70;;;18.30;63.20;;;18.53;47.22;94052.19;4922248;29;20493;-23
2023/03/26 08:12:57;;;;;;;0.43;0.43;;;18.30;63.30;;;18.56;46.78;94059.63;4938541;29;20191;-25
2023/03/26 08:15:32;;;;;;;0.50;0.50;;;18.30;63.20;;;18.58;46.78;94054.84;4932425;29;20219;-32
2023/03/26 08:18:34;;;;;;;0.60;0.60;;;18.30;63.20;;;18.60;46.71;94050.06;4921622;29;20277;-23
2023/03/26 08:21:30;;;;;;;0.40;0.40;;;18.40;63.20;;;18.61;47.15;94048.22;4921535;29;20190;-26
2023/03/26 08:24:22;;;;;;;0.40;0.40;;;18.40;63.20;;;18.62;47.09;94039.97;4921852;29;20655;-25
2023/03/26 08:27:23;;;;;;;0.50;0.50;;;18.40;63.20;;;18.64;46.92;94035.22;4921840;29;20183;-25
2023/03/26 08:30:06;;;;;;;0.57;0.57;;;18.40;63.30;;;18.68;46.91;94046.88;4938444;29;20246;-26
2023/03/26 08:32:33;;;;;;;0.50;0.50;;;18.40;63.30;;;18.68;46.76;94033.59;4938060;29;20176;-22
2023/03/26 08:35:03;;;;;;;0.50;0.50;;;18.50;63.20;;;18.71;46.87;94026.97;4937619;29;20202;-23
2023/03/26 08:37:31;;;;;;;0.50;0.50;;;18.50;63.20;;;18.73;47.12;94022.97;4921678;29;20550;-23
2023/03/26 08:39:58;;;;;;;0.43;0.43;;;18.50;63.20;;;18.76;46.61;94019.03;4921118;29;20215;-23
2023/03/26 08:43:02;;;;;;;0.50;0.50;;;18.50;63.20;;;18.77;47.05;94020.59;4937505;29;20323;-26
2023/03/26 08:45:53;;;;;;;0.60;0.60;;;18.50;63.10;;;18.80;46.64;94017.41;4937583;29;20257;-26
2023/03/26 08:48:28;;;;;;;0.50;0.50;;;18.50;63.20;;;18.81;47.08;94013.72;4937740;29;20519;-25
2023/03/26 08:51:09;;;;;;;0.60;0.60;;;18.60;63.20;;;18.83;46.83;94014.22;4921304;29;20208;-26
2023/03/26 08:54:18;;;;;;;0.50;0.50;;;18.60;63.10;;;18.83;46.90;94005.47;4921359;29;20319;-23
2023/03/26 08:57:16;;;;;;;0.50;0.50;;;18.60;63.10;;;18.86;46.93;94005.72;4906975;29;20622;-24
2023/03/26 09:00:12;;;;;;;0.50;0.50;;;18.60;63.10;;;18.85;46.48;93998.81;4934038;29;20258;-23
2023/03/26 09:02:59;;;;;;;0.50;0.50;;;18.60;63.00;;;18.86;46.54;93996.97;4937929;29;20200;-26
2023/03/26 09:05:53;;;;;;;0.52;0.52;;;18.70;63.10;;;18.87;46.61;93996.69;4902177;29;20204;-23
2023/03/26 09:08:37;;;;;;;0.43;0.43;;;18.70;63.10;;;18.92;46.83;94000.44;4933068;29;20294;-23
2023/03/26 09:11:48;;;;;;;0.40;0.40;;;18.70;63.90;;;18.90;46.75;93981.31;4937007;29;20596;-25
2023/03/26 09:14:45;;;;;;;0.43;0.43;;;18.70;63.00;;;18.95;46.92;93992.72;4925563;29;20212;-26
2023/03/26 09:17:49;;;;;;;0.50;0.50;;;18.70;63.00;;;18.97;47.00;93995.94;4941475;29;20235;-26
2023/03/26 09:20:52;;;;;;;0.60;0.60;;;18.70;63.00;;;18.96;47.14;93985.56;4914443;29;20211;-23
2023/03/26 09:24:11;;;;;;;0.60;0.60;;;18.80;63.10;;;18.98;46.72;93991.41;4898449;29;20207;-23
2023/03/26 09:27:20;;;;;;;0.40;0.40;;;18.80;63.10;;;19.01;46.70;93985.56;4921991;29;20211;-23
2023/03/26 09:30:17;;;;;;;0.50;0.50;;;18.80;63.10;;;19.03;46.68;93983.44;4845807;29;20203;-23
2023/03/26 09:33:10;;;;;;;0.55;0.55;;;18.80;63.10;;;19.06;46.80;93992.75;4905362;29;20264;-26
2023/03/26 09:36:07;;;;;;;0.50;0.50;;;18.80;63.00;;;19.08;46.71;93985.28;4922167;29;20188;-26
2023/03/26 09:39:02;;;;;;;0.43;0.43;;;18.90;63.20;;;19.09;46.61;93981.56;4917348;29;20598;-26
2023/03/26 09:41:59;;;;;;;0.40;0.40;;;18.90;63.10;;;19.12;46.71;93965.09;4891813;29;20276;-26
2023/03/26 09:44:52;;;;;;;0.50;0.50;;;18.90;63.10;;;19.12;46.69;93955.25;4921790;29;20260;-23
2023/03/26 09:47:35;;;;;;;0.50;0.50;;;18.90;63.10;;;19.15;46.80;93959.22;4933794;29;20698;-23
2023/03/26 09:50:31;;;;;;;0.50;0.50;;;18.90;63.00;;;19.19;46.93;93953.09;4927242;29;20243;-27
2023/03/26 09:53:54;;;;;;;0.50;0.50;;;18.90;63.00;;;19.22;46.80;93953.63;4936814;29;20583;-23
2023/03/26 09:56:43;;;;;;;0.50;0.50;;;19.00;63.10;;;19.22;46.91;93937.69;4882604;29;20213;-26
2023/03/26 09:59:38;;;;;;;0.50;0.50;;;19.00;63.10;;;19.26;46.60;93925.44;4921450;29;20181;-25
2023/03/26 10:02:17;;;;;;;0.50;0.50;;;19.00;63.00;;;19.28;47.05;93924.09;4909041;29;20683;-23
2023/03/26 10:04:50;;;;;;;0.40;0.40;;;19.00;63.00;;;19.32;46.64;93921.69;4941089;29;20203;-26
2023/03/26 10:07:38;;;;;;;0.50;0.50;;;19.10;63.10;;;19.34;46.88;93930.19;4917597;29;20220;-23
2023/03/26 10:10:44;;;;;;;0.50;0.50;;;19.10;63.10;;;19.36;46.74;93928.88;4904666;29;20241;-23
2023/03/26 10:13:49;;;;;;;0.50;0.50;;;19.10;63.00;;;19.39;46.62;93921.41;4932401;29;20239;-23
2023/03/26 10:16:23;;;;;;;0.45;0.45;;;19.10;62.90;;;19.38;46.95;93912.63;4939938;29;20707;-26
2023/03/26 10:19:34;;;;;;;0.47;0.47;;;19.20;63.00;;;19.42;46.92;93908.38;4922564;29;20239;-26
2023/03/26 10:22:30;;;;;;;0.40;0.40;;;19.20;62.90;;;19.43;47.09;93904.66;4926944;29;20199;-29
2023/03/26 10:25:27;;;;;;;0.57;0.57;;;19.20;62.90;;;19.48;46.45;93911.78;4899931;29;20203;-23
2023/03/26 10:28:30;;;;;;;0.60;0.60;;;19.20;62.80;;;19.47;46.64;93891.59;4925024;29;20203;-26
2023/03/26 10:31:16;;;;;;;0.50;0.50;;;19.30;63.00;;;19.50;46.56;93891.06;4919838;29;20255;-25
2023/03/26 10:33:56;;;;;;;0.50;0.50;;;19.30;63.00;;;19.55;46.56;93885.69;4931377;29;20283;-25
2023/03/26 10:36:35;;;;;;;0.50;0.50;;;19.30;63.00;;;19.57;46.74;93883.56;4932698;29;20215;-25
2023/03/26 10:39:31;;;;;;;0.43;0.43;;;19.30;63.00;;;19.58;46.57;93882.50;4923091;29;20205;-26
2023/03/26 10:43:15;;;;;;;0.40;0.40;;;19.30;62.90;;;19.58;46.83;93876.38;4939215;29;20242;-25
2023/03/26 10:46:04;;;;;;;0.40;0.40;;;19.40;63.00;;;19.61;46.53;93870.53;4866144;29;20216;-23
2023/03/26 10:49:28;;;;;;;0.50;0.50;;;19.40;63.00;;;19.61;46.65;93862.53;4938000;29;20275;-26
2023/03/26 10:52:06;;;;;;;0.60;0.60;;;19.40;63.10;;;19.61;46.40;93855.34;4920168;29;20223;-26
2023/03/26 10:55:13;;;;;;;0.50;0.50;;;19.40;63.00;;;19.64;46.93;93846.81;4903930;29;20193;-26
2023/03/26 10:57:55;;;;;;;0.40;0.40;;;19.40;63.00;;;19.65;46.30;93844.94;4934084;29;20209;-26
2023/03/26 11:00:25;;;;;;;0.50;0.50;;;19.50;63.10;;;19.68;46.84;93829.25;4923162;29;20230;-26
2023/03/26 11:03:22;;;;;;;0.43;0.43;;;19.50;63.10;;;19.70;46.74;93828.97;4920555;29;20205;-26
2023/03/26 11:06:07;;;;;;;0.50;0.50;;;19.50;63.10;;;19.73;46.50;93832.97;4919660;29;20196;-26
2023/03/26 11:08:56;;;;;;;0.52;0.52;;;19.50;63.10;;;19.72;46.77;93826.81;4933163;29;20603;-25
2023/03/26 11:11:52;;;;;;;0.50;0.50;;;19.50;63.10;;;19.71;46.27;93822.56;4933980;29;20223;-25
2023/03/26 11:14:38;;;;;;;0.40;0.40;;;19.50;63.10;;;19.75;46.58;93822.81;4916812;29;20204;-23
2023/03/26 11:17:36;;;;;;;0.50;0.50;;;19.60;63.10;;;19.77;46.25;93821.47;4929383;29;20548;-26
2023/03/26 11:20:16;;;;;;;0.50;0.50;;;19.60;63.20;;;19.78;46.64;93817.72;4907280;29;20243;-23
2023/03/26 11:22:55;;;;;;;0.40;0.40;;;19.60;63.10;;;19.80;46.63;93820.13;4922414;29;20593;-26
2023/03/26 11:25:42;;;;;;;0.40;0.40;;;19.60;63.10;;;19.79;46.34;93818.53;4921968;29;20270;-26